Time;durP1;ratioP1;P1;durP2;ratioP2;P2;SDS_P1;SDS_P2;PMS_P1;PMS_P2;Temp;Humidity;BMP_temperature;BMP_pressure;BME280_temperature;BME280_humidity;BME280_pressure;Samples;Min_cycle;Max_cycle;Signal;HPM_P1;HPM_P2
2023/06/08 00:00:23;;;;;;;18.90;14.07;;;14.30;99.90;;;;;;7598830;19;21275;-76
2023/06/08 00:02:56;;;;;;;20.63;13.40;;;14.30;99.90;;;;;;7590559;19;20018;-77
2023/06/08 00:05:28;;;;;;;20.15;13.35;;;14.30;99.90;;;;;;7589930;19;20018;-75
2023/06/08 00:08:03;;;;;;;17.58;13.55;;;14.20;99.90;;;;;;7576313;19;20611;-77
2023/06/08 00:10:35;;;;;;;16.13;12.73;;;14.20;99.90;;;;;;7594880;19;20044;-75
2023/06/08 00:13:07;;;;;;;17.13;13.52;;;14.20;99.90;;;;;;7606384;19;20036;-76
2023/06/08 00:15:40;;;;;;;20.52;14.90;;;14.10;99.90;;;;;;7586472;19;20032;-77
2023/06/08 00:18:12;;;;;;;19.20;14.45;;;14.00;99.90;;;;;;7597886;19;20021;-75
2023/06/08 00:20:46;;;;;;;19.60;14.90;;;14.00;99.90;;;;;;7591195;19;20681;-75
2023/06/08 00:23:19;;;;;;;16.80;13.48;;;13.80;99.90;;;;;;7594372;19;20032;-76
2023/06/08 00:25:51;;;;;;;16.65;13.68;;;13.90;99.90;;;;;;7597442;19;20022;-75
2023/06/08 00:28:23;;;;;;;19.38;14.38;;;13.90;99.90;;;;;;7601036;19;20018;-76
2023/06/08 00:30:55;;;;;;;17.75;14.63;;;13.80;99.90;;;;;;7599090;19;20035;-76
2023/06/08 00:33:28;;;;;;;18.58;13.32;;;13.90;99.90;;;;;;7596888;19;20014;-75
2023/06/08 00:36:02;;;;;;;15.75;12.65;;;13.80;99.90;;;;;;7602391;19;20007;-76
2023/06/08 00:38:37;;;;;;;17.17;13.15;;;13.70;99.90;;;;;;7598442;19;20015;-75
2023/06/08 00:41:09;;;;;;;17.17;13.90;;;13.70;99.90;;;;;;7600250;19;20017;-77
2023/06/08 00:43:47;;;;;;;18.65;13.98;;;13.60;99.90;;;;;;7600722;19;20480;-75
2023/06/08 00:46:19;;;;;;;17.13;13.60;;;13.60;99.90;;;;;;7615311;19;20015;-75
2023/06/08 00:48:53;;;;;;;18.52;14.45;;;13.70;99.90;;;;;;7603467;19;20018;-76
2023/06/08 00:51:28;;;;;;;19.42;13.75;;;13.80;99.90;;;;;;7600000;19;20720;-75
2023/06/08 00:54:02;;;;;;;19.33;14.93;;;13.70;99.90;;;;;;7584000;19;20878;-75
2023/06/08 00:56:36;;;;;;;20.08;13.82;;;13.60;99.90;;;;;;7564861;19;20014;-75
2023/06/08 00:59:09;;;;;;;;;;;13.60;99.90;;;;;;7598019;19;20018;-76
2023/06/08 01:01:42;;;;;;;18.35;14.32;;;13.60;99.90;;;;;;7588935;19;19922;-75
2023/06/08 01:04:15;;;;;;;22.80;14.15;;;13.50;99.90;;;;;;7592484;19;20052;-75
2023/06/08 01:06:49;;;;;;;16.83;13.40;;;13.40;99.90;;;;;;7594420;19;20111;-77
2023/06/08 01:09:47;;;;;;;17.52;14.63;;;13.40;99.90;;;;;;7593185;19;20025;-75
2023/06/08 01:12:43;;;;;;;15.68;12.68;;;13.40;99.90;;;;;;7594121;19;20047;-76
2023/06/08 01:15:21;;;;;;;15.65;13.70;;;13.50;99.90;;;;;;7595890;19;20565;-83
2023/06/08 01:18:04;;;;;;;20.33;14.18;;;13.40;99.90;;;;;;7591174;19;20010;-81
2023/06/08 01:21:06;;;;;;;18.17;14.73;;;13.30;99.90;;;;;;7593520;19;21642;-80
2023/06/08 01:24:03;;;;;;;15.77;13.50;;;13.10;99.90;;;;;;7587385;19;20032;-78
2023/06/08 01:26:37;;;;;;;15.98;13.60;;;13.00;99.90;;;;;;7601057;19;20824;-80
2023/06/08 01:29:11;;;;;;;15.27;13.27;;;13.10;99.90;;;;;;7597839;19;21096;-80
2023/06/08 01:31:43;;;;;;;16.83;14.18;;;13.10;99.90;;;;;;7590414;19;20030;-85
2023/06/08 01:34:16;;;;;;;21.92;15.10;;;13.10;99.90;;;;;;7585897;19;20038;-82
2023/06/08 01:37:06;;;;;;;18.52;14.52;;;13.10;99.90;;;;;;7585594;19;20047;-83
2023/06/08 01:40:03;;;;;;;19.60;14.88;;;12.90;99.90;;;;;;7591845;19;20369;-80
2023/06/08 01:42:36;;;;;;;21.05;15.75;;;12.80;99.90;;;;;;7591336;19;20767;-81
2023/06/08 01:45:11;;;;;;;;;;;12.70;99.90;;;;;;7582560;19;20022;-81
2023/06/08 01:47:52;;;;;;;18.92;14.90;;;12.70;99.90;;;;;;7596891;19;20381;-83
2023/06/08 01:50:25;;;;;;;18.85;13.68;;;12.70;99.90;;;;;;7591463;19;20018;-83
2023/06/08 01:52:58;;;;;;;18.05;14.25;;;12.80;99.90;;;;;;7588249;19;20566;-80
2023/06/08 01:55:30;;;;;;;20.37;14.73;;;12.80;99.90;;;;;;7587032;19;20015;-80
2023/06/08 01:58:03;;;;;;;18.45;14.52;;;12.80;99.90;;;;;;7584079;19;20282;-83
2023/06/08 02:00:35;;;;;;;17.60;14.25;;;12.80;99.90;;;;;;7594489;19;20046;-83
2023/06/08 02:03:07;;;;;;;18.48;13.73;;;12.80;99.90;;;;;;7595028;19;20768;-82
2023/06/08 02:05:40;;;;;;;16.90;14.18;;;12.80;99.90;;;;;;7591546;19;20023;-81
2023/06/08 02:08:12;;;;;;;16.95;14.02;;;12.80;99.90;;;;;;7584355;19;20019;-79
2023/06/08 02:10:44;;;;;;;16.38;13.63;;;12.80;99.90;;;;;;7587681;19;20019;-81
2023/06/08 02:13:16;;;;;;;15.65;13.15;;;12.80;99.90;;;;;;7591761;19;20030;-82
2023/06/08 02:15:50;;;;;;;19.10;14.35;;;12.90;99.90;;;;;;7587908;19;20018;-84
2023/06/08 02:18:25;;;;;;;18.80;13.70;;;12.80;99.90;;;;;;7603289;19;20510;-80
2023/06/08 02:20:57;;;;;;;17.77;13.38;;;12.80;99.90;;;;;;7602950;19;20026;-80
2023/06/08 02:23:30;;;;;;;16.42;13.95;;;12.70;99.90;;;;;;7584313;19;20002;-80
2023/06/08 02:26:03;;;;;;;18.63;14.43;;;12.80;99.90;;;;;;7587549;19;20381;-82
2023/06/08 02:28:35;;;;;;;;;;;12.80;99.90;;;;;;7589258;19;20018;-82
2023/06/08 02:31:08;;;;;;;19.02;14.85;;;12.70;99.90;;;;;;7592206;19;20318;-83
2023/06/08 02:33:40;;;;;;;17.38;14.57;;;12.60;99.90;;;;;;7596529;19;20022;-81
2023/06/08 02:36:12;;;;;;;18.30;14.77;;;12.70;99.90;;;;;;7595029;19;20029;-80
2023/06/08 02:38:45;;;;;;;16.27;13.88;;;12.80;99.90;;;;;;7588203;19;20921;-79
2023/06/08 02:41:17;;;;;;;16.27;13.80;;;12.70;99.90;;;;;;7596002;19;20402;-85
2023/06/08 02:43:50;;;;;;;18.90;14.07;;;12.60;99.90;;;;;;7594476;19;20156;-80
2023/06/08 02:46:23;;;;;;;17.38;14.80;;;12.60;99.90;;;;;;7601842;19;20021;-84
2023/06/08 02:48:55;;;;;;;17.77;14.32;;;12.60;99.90;;;;;;7590546;19;20673;-84
2023/06/08 02:51:29;;;;;;;17.52;14.40;;;12.60;99.90;;;;;;7600195;19;20018;-83
2023/06/08 02:54:01;;;;;;;18.27;13.38;;;12.60;99.90;;;;;;7595266;19;20034;-84
2023/06/08 02:56:34;;;;;;;18.10;14.63;;;12.50;99.90;;;;;;7594640;19;20717;-83
2023/06/08 02:59:09;;;;;;;19.38;14.23;;;12.60;99.90;;;;;;7599410;19;20010;-81
2023/06/08 03:01:52;;;;;;;15.82;13.43;;;12.40;99.90;;;;;;7598688;19;20028;-83
2023/06/08 03:04:28;;;;;;;17.25;14.10;;;12.50;99.90;;;;;;7598271;19;20102;-83
2023/06/08 03:07:09;;;;;;;18.35;13.35;;;12.50;99.90;;;;;;7590163;19;20040;-84
2023/06/08 03:09:44;;;;;;;16.00;13.77;;;12.50;99.90;;;;;;7593772;19;20121;-80
2023/06/08 03:12:21;;;;;;;18.88;14.60;;;12.40;99.90;;;;;;7607897;19;20519;-80
2023/06/08 03:14:54;;;;;;;19.50;13.87;;;12.40;99.90;;;;;;7601098;19;20022;-80
2023/06/08 03:17:32;;;;;;;15.77;13.38;;;12.30;99.90;;;;;;7596808;19;20149;-82
2023/06/08 03:20:08;;;;;;;19.30;12.95;;;12.30;99.90;;;;;;7600570;19;20014;-80
2023/06/08 03:22:46;;;;;;;16.67;13.35;;;12.30;99.90;;;;;;7594041;19;20015;-80
2023/06/08 03:25:21;;;;;;;18.52;14.55;;;12.40;99.90;;;;;;7598636;19;20011;-83
2023/06/08 03:27:55;;;;;;;17.00;13.40;;;12.40;99.90;;;;;;7615842;19;20030;-80
2023/06/08 03:30:28;;;;;;;15.50;13.52;;;12.40;99.90;;;;;;7608228;19;20078;-82
2023/06/08 03:33:05;;;;;;;15.75;13.57;;;12.40;99.90;;;;;;7598448;19;20010;-75
2023/06/08 03:35:47;;;;;;;16.02;13.57;;;12.40;99.90;;;;;;7596665;19;20026;-77
2023/06/08 03:38:30;;;;;;;;;;;12.30;99.90;;;;;;7582602;19;20455;-76
2023/06/08 03:41:10;;;;;;;18.50;13.95;;;12.40;99.90;;;;;;7587515;19;19976;-75
2023/06/08 03:43:42;;;;;;;15.70;13.25;;;12.40;99.90;;;;;;7586902;19;20055;-74
2023/06/08 03:46:14;;;;;;;14.73;12.57;;;12.30;99.90;;;;;;7595349;19;20845;-77
2023/06/08 03:48:47;;;;;;;16.63;12.70;;;12.30;99.90;;;;;;7595964;19;20018;-77
2023/06/08 03:51:21;;;;;;;18.30;13.77;;;12.20;99.90;;;;;;7603736;19;20022;-76
2023/06/08 03:53:54;;;;;;;16.30;13.70;;;12.20;99.90;;;;;;7581307;19;20015;-76
2023/06/08 03:56:26;;;;;;;16.10;13.75;;;12.20;99.90;;;;;;7586400;19;20014;-75
2023/06/08 03:58:59;;;;;;;17.20;13.75;;;12.20;99.90;;;;;;7589071;19;20033;-78
2023/06/08 04:01:35;;;;;;;17.35;12.88;;;12.10;99.90;;;;;;7589699;19;20014;-76
2023/06/08 04:04:07;;;;;;;18.02;13.82;;;12.10;99.90;;;;;;7597585;19;20018;-77
2023/06/08 04:06:41;;;;;;;20.05;13.20;;;12.10;99.90;;;;;;7594092;19;20526;-75
2023/06/08 04:09:14;;;;;;;15.73;12.98;;;12.20;99.90;;;;;;7598690;19;20033;-76
2023/06/08 04:11:47;;;;;;;16.95;13.38;;;12.30;99.90;;;;;;7602767;19;20021;-77
2023/06/08 04:14:20;;;;;;;17.70;13.30;;;12.40;99.90;;;;;;7602138;19;20025;-77
2023/06/08 04:16:52;;;;;;;19.85;14.07;;;12.30;99.90;;;;;;7591476;19;21103;-76
2023/06/08 04:19:26;;;;;;;;;;;12.40;99.90;;;;;;7582875;19;20854;-77
2023/06/08 04:21:59;;;;;;;16.93;13.90;;;12.30;99.90;;;;;;7540944;19;19919;-77
2023/06/08 04:24:38;;;;;;;15.45;12.65;;;12.40;99.90;;;;;;7572254;19;20022;-77
2023/06/08 04:27:11;;;;;;;20.55;14.07;;;12.40;99.90;;;;;;7584786;19;20173;-78
2023/06/08 04:29:43;;;;;;;15.38;12.90;;;12.30;99.90;;;;;;7589484;19;20018;-78
2023/06/08 04:32:16;;;;;;;17.75;13.43;;;12.30;99.90;;;;;;7590177;19;21086;-77
2023/06/08 04:34:48;;;;;;;15.00;13.18;;;12.40;99.90;;;;;;7581988;19;20022;-77
2023/06/08 04:37:21;;;;;;;19.67;13.85;;;12.50;99.90;;;;;;7580988;19;20015;-77
2023/06/08 04:39:53;;;;;;;14.77;13.15;;;12.50;99.90;;;;;;7583826;19;20022;-77
2023/06/08 04:42:29;;;;;;;15.70;13.02;;;12.50;99.90;;;;;;7573725;19;20019;-76
2023/06/08 04:45:03;;;;;;;15.25;12.55;;;12.60;99.90;;;;;;7574495;19;20019;-77
2023/06/08 04:47:39;;;;;;;16.80;13.48;;;12.70;99.90;;;;;;7589056;19;20551;-77
2023/06/08 04:50:13;;;;;;;14.60;12.50;;;12.80;99.90;;;;;;7597385;19;20007;-76
2023/06/08 04:52:47;;;;;;;17.10;12.90;;;13.00;99.90;;;;;;7580568;19;20006;-78
2023/06/08 04:55:19;;;;;;;;;;;;;;;;;;7594938;19;20369;-77
2023/06/08 04:57:52;;;;;;;17.48;10.98;;;;;;;;;;7581498;19;20720;-77
2023/06/08 05:00:25;;;;;;;13.10;11.27;;;;;;;;;;7599067;19;20070;-78
2023/06/08 05:02:58;;;;;;;16.03;12.50;;;;;;;;;;7586956;19;20036;-85
2023/06/08 05:05:30;;;;;;;15.60;10.98;;;13.20;99.90;;;;;;7587120;19;20727;-83
2023/06/08 05:08:03;;;;;;;12.85;11.35;;;13.80;99.90;;;;;;7592986;19;20640;-84
2023/06/08 05:10:35;;;;;;;15.13;11.18;;;13.90;99.90;;;;;;7604378;19;20010;-86
2023/06/08 05:13:08;;;;;;;15.63;12.27;;;;;;;;;;7591889;19;20633;-81
2023/06/08 05:15:40;;;;;;;14.15;11.07;;;;;;;;;;7591114;19;20092;-84
2023/06/08 05:18:13;;;;;;;17.55;11.77;;;;;;;;;;7610185;19;20523;-81
2023/06/08 05:20:47;;;;;;;13.93;11.43;;;;;;;;;;7598208;19;20025;-81
2023/06/08 05:23:20;;;;;;;14.30;11.55;;;;;;;;;;7604752;19;20504;-84
2023/06/08 05:25:53;;;;;;;16.35;12.35;;;;;;;;;;7604004;19;20015;-82
2023/06/08 05:28:26;;;;;;;14.68;11.60;;;;;;;;;;7621989;19;20007;-85
2023/06/08 05:30:59;;;;;;;15.15;11.15;;;;;;;;;;7628737;19;20631;-86
2023/06/08 05:33:31;;;;;;;18.33;12.48;;;;;;;;;;7640324;19;21296;-87
2023/06/08 05:36:05;;;;;;;13.70;11.35;;;;;;;;;;7599746;19;20018;-81
2023/06/08 05:38:38;;;;;;;14.25;11.88;;;;;;;;;;7607293;19;20624;-83
2023/06/08 05:41:11;;;;;;;14.13;11.40;;;;;;;;;;7604116;19;20039;-84
2023/06/08 05:43:44;;;;;;;13.55;10.98;;;;;;;;;;7608928;19;20026;-82
2023/06/08 05:46:17;;;;;;;13.57;10.17;;;;;;;;;;7594665;19;20022;-85
2023/06/08 05:48:49;;;;;;;16.30;10.30;;;;;;;;;;7598848;19;20038;-83
2023/06/08 05:51:22;;;;;;;12.75;9.95;;;;;;;;;;7592983;19;20007;-82
2023/06/08 05:53:55;;;;;;;13.60;11.13;;;;;;;;;;7599053;19;20018;-84
2023/06/08 05:56:28;;;;;;;12.80;10.77;;;;;;;;;;7601721;19;20018;-82
2023/06/08 05:59:00;;;;;;;13.20;10.10;;;;;;;;;;7600310;19;21338;-86
2023/06/08 06:01:33;;;;;;;13.45;11.35;;;;;;;;;;7594146;19;20029;-85
2023/06/08 06:04:06;;;;;;;13.45;10.68;;;;;;;;;;7597350;19;20023;-84
2023/06/08 06:06:53;;;;;;;17.77;11.00;;;;;;;;;;7588973;19;20540;-84
2023/06/08 06:09:26;;;;;;;13.50;10.57;;;;;;;;;;7591979;19;20074;-80
2023/06/08 06:11:59;;;;;;;12.40;10.75;;;;;;;;;;7595320;19;20018;-84
2023/06/08 06:14:39;;;;;;;12.15;10.30;;;;;;;;;;7596482;19;20014;-85
2023/06/08 06:17:15;;;;;;;13.57;10.82;;;;;;;;;;7589898;19;20021;-83
2023/06/08 06:19:48;;;;;;;13.80;10.63;;;;;;;;;;7597871;19;20019;-82
2023/06/08 06:22:22;;;;;;;12.93;10.30;;;;;;;;;;7595379;19;20018;-87
2023/06/08 06:24:54;;;;;;;17.90;10.52;;;;;;;;;;7605786;19;20305;-81
2023/06/08 06:27:27;;;;;;;14.68;10.15;;;;;;;;;;7601154;19;20028;-83
2023/06/08 06:30:00;;;;;;;12.15;10.25;;;;;;;;;;7591664;19;20022;-86
2023/06/08 06:32:33;;;;;;;12.33;10.03;;;;;;;;;;7596130;19;20052;-81
2023/06/08 06:35:06;;;;;;;13.80;10.20;;;;;;;;;;7580026;19;20602;-86
2023/06/08 06:37:39;;;;;;;;;;;;;;;;;;7582775;19;20014;-83
2023/06/08 06:40:12;;;;;;;14.77;10.57;;;;;;;;;;7593403;19;20274;-84
2023/06/08 06:42:45;;;;;;;12.98;11.13;;;;;;;;;;7592951;19;20492;-82
2023/06/08 06:45:37;;;;;;;11.57;10.23;;;;;;;;;;7577552;19;21031;-87
2023/06/08 06:48:10;;;;;;;11.80;10.18;;;;;;;;;;7576990;19;20026;-83
2023/06/08 06:50:44;;;;;;;11.43;9.60;;;;;;;;;;7593660;19;20022;-88
2023/06/08 06:53:17;;;;;;;15.32;10.00;;;;;;;;;;7600131;19;20018;-84
2023/06/08 06:55:49;;;;;;;15.02;9.85;;;;;;;;;;7586075;19;20022;-85
2023/06/08 06:58:23;;;;;;;11.38;9.75;;;;;;;;;;7598198;19;20517;-85
2023/06/08 07:00:55;;;;;;;15.00;10.70;;;14.00;99.90;;;;;;7596592;19;20023;-82
2023/06/08 07:03:27;;;;;;;10.73;9.35;;;19.10;99.90;;;;;;7593662;19;20019;-84
2023/06/08 07:05:59;;;;;;;11.70;9.82;;;19.10;99.90;;;;;;7581389;19;20025;-83
2023/06/08 07:08:34;;;;;;;13.45;9.77;;;19.40;99.90;;;;;;7601886;19;20372;-83
2023/06/08 07:11:06;;;;;;;11.18;9.85;;;19.40;99.90;;;;;;7593146;19;20556;-84
2023/06/08 07:13:38;;;;;;;13.07;10.93;;;19.70;99.90;;;;;;7595538;19;20351;-84
2023/06/08 07:16:10;;;;;;;13.10;10.63;;;19.80;99.90;;;;;;7578027;19;20387;-83
2023/06/08 07:18:42;;;;;;;13.57;10.18;;;19.80;99.90;;;;;;7576367;19;20043;-85
2023/06/08 07:21:19;;;;;;;12.77;10.93;;;;;;;;;;7592688;19;20034;-81
2023/06/08 07:23:52;;;;;;;12.60;10.02;;;;;;;;;;7599348;19;20006;-82
2023/06/08 07:26:45;;;;;;;14.15;10.63;;;;;;;;;;7584720;19;20002;-83
2023/06/08 07:29:18;;;;;;;14.77;10.20;;;;;;;;;;7592757;19;21802;-86
2023/06/08 07:31:51;;;;;;;12.50;9.60;;;;;;;;;;7584297;19;20010;-84
2023/06/08 07:34:25;;;;;;;14.80;10.32;;;;;;;;;;7585152;19;21071;-83
2023/06/08 07:36:58;;;;;;;12.63;10.35;;;;;;;;;;7580895;19;20816;-82
2023/06/08 07:39:31;;;;;;;10.70;9.53;;;;;;;;;;7586810;19;20047;-81
2023/06/08 07:42:04;;;;;;;13.02;9.73;;;;;;;;;;7564271;19;20063;-85
2023/06/08 07:44:36;;;;;;;11.73;9.85;;;;;;;;;;7557791;19;20275;-84
2023/06/08 07:47:09;;;;;;;12.10;9.93;;;;;;;;;;7565241;19;20025;-81
2023/06/08 07:49:42;;;;;;;10.00;8.93;;;;;;;;;;7579811;19;20650;-82
2023/06/08 07:52:15;;;;;;;11.40;9.00;;;;;;;;;;7583493;19;20014;-82
2023/06/08 07:54:48;;;;;;;14.07;9.25;;;;;;;;;;7580569;19;20015;-82
2023/06/08 07:57:20;;;;;;;17.15;9.65;;;;;;;;;;7572498;19;20022;-83
2023/06/08 07:59:53;;;;;;;10.30;9.07;;;;;;;;;;7577284;19;20022;-81
2023/06/08 08:02:26;;;;;;;11.40;9.70;;;;;;;;;;7573769;19;20107;-84
2023/06/08 08:05:00;;;;;;;14.55;8.93;;;;;;;;;;7549124;19;20035;-83
2023/06/08 08:07:33;;;;;;;11.80;9.63;;;;;;;;;;7559362;19;20342;-84
2023/06/08 08:10:06;;;;;;;14.77;9.00;;;;;;;;;;7569174;19;20467;-83
2023/06/08 08:12:39;;;;;;;10.25;8.32;;;;;;;;;;7581867;19;20623;-85
2023/06/08 08:15:12;;;;;;;12.77;8.40;;;;;;;;;;7579366;19;21230;-87
2023/06/08 08:17:46;;;;;;;12.93;9.02;;;;;;;;;;7593372;19;20514;-84
2023/06/08 08:20:18;;;;;;;9.90;8.60;;;;;;;;;;7604000;19;20027;-84
2023/06/08 08:22:51;;;;;;;11.70;9.25;;;;;;;;;;7591313;19;20018;-75
2023/06/08 08:25:24;;;;;;;13.13;8.93;;;;;;;;;;7599516;19;20007;-83
2023/06/08 08:27:58;;;;;;;12.45;8.52;;;;;;;;;;7578354;19;20015;-82
2023/06/08 08:30:31;;;;;;;12.53;8.87;;;;;;;;;;7570560;19;20081;-85
2023/06/08 08:33:04;;;;;;;11.75;8.55;;;;;;;;;;7569259;19;20463;-84
2023/06/08 08:35:37;;;;;;;10.73;7.68;;;;;;;;;;7567206;19;20549;-80
2023/06/08 08:38:09;;;;;;;9.07;7.30;;;;;;;;;;7574648;19;20022;-79
2023/06/08 08:40:42;;;;;;;10.35;8.38;;;;;;;;;;7586633;19;20044;-81
2023/06/08 08:43:18;;;;;;;11.38;8.10;;;;;;;;;;7591939;19;20031;-79
2023/06/08 08:45:51;;;;;;;11.35;8.10;;;;;;;;;;7604864;19;20022;-81
2023/06/08 08:48:26;;;;;;;10.25;8.73;;;;;;;;;;7587757;19;20637;-81
2023/06/08 08:51:00;;;;;;;10.70;8.50;;;;;;;;;;7572993;19;20018;-80
2023/06/08 08:53:33;;;;;;;12.73;8.73;;;;;;;;;;7586613;19;20014;-82
2023/06/08 08:56:07;;;;;;;9.73;7.72;;;;;;;;;;7575635;19;20037;-82
2023/06/08 08:58:40;;;;;;;9.13;8.20;;;;;;;;;;7575000;19;20995;-80
2023/06/08 09:01:13;;;;;;;8.48;7.45;;;;;;;;;;7570694;19;20017;-80
2023/06/08 09:03:46;;;;;;;;;;;;;;;;;;7554811;19;20026;-79
2023/06/08 09:06:20;;;;;;;9.30;7.57;;;;;;;;;;7557114;19;19929;-81
2023/06/08 09:08:52;;;;;;;7.35;6.50;;;;;;;;;;7565027;19;20025;-81
2023/06/08 09:11:26;;;;;;;9.93;8.00;;;;;;;;;;7561870;19;20029;-80
2023/06/08 09:14:09;;;;;;;9.05;7.05;;;;;;;;;;7566065;19;20023;-80
2023/06/08 09:16:43;;;;;;;8.68;6.85;;;;;;;;;;7557011;19;20010;-81
2023/06/08 09:19:16;;;;;;;12.40;7.78;;;;;;;;;;7570325;19;21037;-81
2023/06/08 09:21:49;;;;;;;11.00;7.03;;;;;;;;;;7566234;19;20314;-81
2023/06/08 09:24:22;;;;;;;9.35;7.57;;;;;;;;;;7548846;19;20021;-80
2023/06/08 09:26:56;;;;;;;11.07;6.85;;;;;;;;;;7556700;19;20094;-84
2023/06/08 09:29:42;;;;;;;9.10;6.78;;;;;;;;;;7560927;19;20018;-84
2023/06/08 09:32:25;;;;;;;8.02;6.28;;;20.00;99.90;;;;;;7569935;19;20010;-80
2023/06/08 09:35:03;;;;;;;7.07;5.70;;;23.80;83.40;;;;;;7568069;19;20021;-79
2023/06/08 09:37:41;;;;;;;7.50;6.35;;;23.70;81.80;;;;;;7558851;19;20547;-80
2023/06/08 09:40:20;;;;;;;6.75;5.90;;;23.80;82.60;;;;;;7546368;19;20010;-80
2023/06/08 09:42:57;;;;;;;6.97;6.28;;;23.90;78.60;;;;;;7537197;19;20014;-84
2023/06/08 09:45:31;;;;;;;8.32;6.10;;;23.80;77.90;;;;;;7531482;19;20018;-80
2023/06/08 09:48:10;;;;;;;8.00;6.40;;;23.90;77.50;;;;;;7544778;19;20356;-80
2023/06/08 09:50:43;;;;;;;6.90;6.20;;;23.80;79.00;;;;;;7505438;19;20018;-82
2023/06/08 09:53:16;;;;;;;9.50;6.45;;;23.80;79.20;;;;;;7535909;19;21619;-80
2023/06/08 09:55:52;;;;;;;7.82;5.80;;;23.90;78.70;;;;;;7549216;19;20026;-80
2023/06/08 09:58:25;;;;;;;10.23;6.32;;;24.00;78.30;;;;;;7566161;19;20019;-80
2023/06/08 10:01:02;;;;;;;8.30;6.40;;;24.00;80.30;;;;;;7541092;19;20044;-82
2023/06/08 10:03:39;;;;;;;10.32;6.93;;;24.00;79.60;;;;;;7566982;19;20390;-84
2023/06/08 10:06:12;;;;;;;7.78;6.65;;;24.00;80.80;;;;;;7567785;19;20015;-80
2023/06/08 10:08:48;;;;;;;8.40;7.05;;;24.00;80.00;;;;;;7556385;19;20021;-80
2023/06/08 10:11:21;;;;;;;8.15;7.35;;;24.10;80.60;;;;;;7558153;19;20102;-80
2023/06/08 10:13:55;;;;;;;;;;;24.00;82.00;;;;;;7554022;19;20018;-80
2023/06/08 10:16:28;;;;;;;8.52;6.78;;;24.30;82.90;;;;;;7563782;19;20500;-82
2023/06/08 10:19:02;;;;;;;7.40;6.60;;;24.50;81.90;;;;;;7558426;19;20056;-79
2023/06/08 10:21:36;;;;;;;7.25;6.10;;;24.80;79.40;;;;;;7553561;19;20034;-79
2023/06/08 10:24:10;;;;;;;8.73;6.57;;;24.80;78.10;;;;;;7495276;19;20014;-80
2023/06/08 10:26:44;;;;;;;8.43;6.53;;;24.80;77.80;;;;;;7476519;19;20067;-82
2023/06/08 10:29:25;;;;;;;;;;;24.50;78.60;;;;;;7499135;19;20032;-82
2023/06/08 10:31:58;;;;;;;8.93;6.88;;;24.50;78.90;;;;;;7508656;19;19915;-82
2023/06/08 10:34:38;;;;;;;7.40;6.70;;;;;;;;;;7521419;19;20018;-80
2023/06/08 10:37:28;;;;;;;7.93;6.68;;;;;;;;;;7523117;19;20018;-79
2023/06/08 10:40:08;;;;;;;7.90;7.10;;;;;;;;;;7520575;19;20990;-82
2023/06/08 10:42:51;;;;;;;7.47;6.57;;;;;;;;;;7502678;19;20014;-82
2023/06/08 10:45:33;;;;;;;6.97;6.30;;;;;;;;;;7508745;19;20018;-79
2023/06/08 10:48:10;;;;;;;8.10;6.55;;;;;;;;;;7519842;19;20014;-83
2023/06/08 10:50:43;;;;;;;6.88;5.88;;;;;;;;;;7520961;19;20010;-82
2023/06/08 10:53:20;;;;;;;6.65;6.00;;;24.90;80.50;;;;;;7507670;19;21215;-85
2023/06/08 10:55:53;;;;;;;7.90;5.72;;;27.90;66.60;;;;;;7538955;19;20018;-83
2023/06/08 10:58:25;;;;;;;7.45;6.10;;;27.80;67.50;;;;;;7552312;19;21402;-86
2023/06/08 11:01:06;;;;;;;6.43;5.38;;;28.10;68.00;;;;;;7544290;19;20022;-80
2023/06/08 11:03:46;;;;;;;5.75;5.18;;;28.50;66.60;;;;;;7559769;19;20014;-82
2023/06/08 11:06:19;;;;;;;9.00;6.63;;;28.20;66.40;;;;;;7560736;19;20014;-87
2023/06/08 11:08:51;;;;;;;7.33;5.70;;;27.70;66.50;;;;;;7565074;19;20014;-82
2023/06/08 11:11:23;;;;;;;8.00;6.28;;;27.30;67.50;;;;;;7553357;19;26922;-86
2023/06/08 11:13:56;;;;;;;6.90;6.20;;;26.80;67.50;;;;;;7564460;19;20049;-85
2023/06/08 11:16:28;;;;;;;8.48;5.47;;;26.50;67.70;;;;;;7545657;19;21714;-88
2023/06/08 11:19:01;;;;;;;13.63;10.05;;;26.30;67.60;;;;;;7605637;19;21393;-85
2023/06/08 11:21:36;;;;;;;9.10;8.20;;;26.20;68.20;;;;;;7574370;19;20018;-85
2023/06/08 11:24:08;;;;;;;6.85;6.18;;;26.40;67.60;;;;;;7545386;19;20546;-87
2023/06/08 11:26:41;;;;;;;7.28;6.53;;;26.70;65.60;;;;;;7550703;19;20037;-84
2023/06/08 11:29:33;;;;;;;15.68;6.07;;;26.60;66.40;;;;;;7588305;19;20018;-83
2023/06/08 11:32:10;;;;;;;16.85;10.88;;;26.70;65.60;;;;;;7563863;19;20133;-82
2023/06/08 11:34:46;;;;;;;9.50;6.30;;;26.80;65.50;;;;;;7523585;19;20070;-84
2023/06/08 11:37:24;;;;;;;8.75;5.90;;;27.10;63.80;;;;;;7568938;19;20017;-85
2023/06/08 11:39:59;;;;;;;8.07;5.68;;;27.20;65.80;;;;;;7553459;19;21548;-83
2023/06/08 11:42:31;;;;;;;6.30;5.70;;;27.10;67.00;;;;;;7563159;19;20126;-82
2023/06/08 11:45:05;;;;;;;7.00;6.05;;;26.80;66.00;;;;;;7562122;19;20106;-85
2023/06/08 11:47:43;;;;;;;7.35;5.22;;;26.50;67.30;;;;;;7564574;19;20041;-82
2023/06/08 11:50:16;;;;;;;6.22;5.63;;;26.40;68.10;;;;;;7574300;19;20362;-85
2023/06/08 11:52:48;;;;;;;6.90;5.83;;;26.10;68.00;;;;;;7563751;19;20024;-82
2023/06/08 11:55:25;;;;;;;8.80;5.60;;;26.10;69.00;;;;;;7558471;19;20015;-84
2023/06/08 11:58:02;;;;;;;7.50;6.13;;;26.10;65.50;;;;;;7563310;19;21124;-85
2023/06/08 12:00:35;;;;;;;7.57;6.78;;;26.10;66.30;;;;;;7571434;19;25738;-85
2023/06/08 12:03:09;;;;;;;9.37;8.30;;;26.10;66.90;;;;;;7542130;19;20014;-82
2023/06/08 12:05:44;;;;;;;11.35;6.50;;;26.00;67.90;;;;;;7548318;19;20018;-84
2023/06/08 12:08:17;;;;;;;6.93;6.25;;;25.90;67.10;;;;;;7552891;19;20022;-85
2023/06/08 12:10:50;;;;;;;6.65;5.88;;;25.90;67.20;;;;;;7577898;19;20022;-83
2023/06/08 12:13:22;;;;;;;8.45;6.40;;;25.70;66.10;;;;;;7557177;19;20018;-85
2023/06/08 12:15:55;;;;;;;6.70;6.10;;;25.80;66.30;;;;;;7562320;19;25613;-82
2023/06/08 12:18:28;;;;;;;6.82;6.13;;;25.90;67.10;;;;;;7553225;19;20082;-80
2023/06/08 12:21:03;;;;;;;5.93;5.30;;;25.90;68.30;;;;;;7544886;19;20077;-78
2023/06/08 12:23:35;;;;;;;9.02;5.78;;;26.20;67.10;;;;;;7529602;19;20060;-84
2023/06/08 12:26:08;;;;;;;6.40;5.73;;;26.10;66.30;;;;;;7555470;19;20053;-87
2023/06/08 12:28:42;;;;;;;6.78;6.05;;;26.20;66.60;;;;;;7549035;19;20374;-88
2023/06/08 12:31:15;;;;;;;6.47;5.88;;;26.00;65.00;;;;;;7563032;19;20014;-79
2023/06/08 12:33:47;;;;;;;7.13;6.00;;;25.80;65.20;;;;;;7550347;19;22991;-81
2023/06/08 12:36:20;;;;;;;7.03;6.32;;;25.70;65.40;;;;;;7567819;19;20052;-82
2023/06/08 12:38:52;;;;;;;6.70;5.78;;;25.40;65.50;;;;;;7549941;19;20010;-81
2023/06/08 12:41:24;;;;;;;8.10;6.40;;;25.40;66.60;;;;;;7555139;19;20002;-78
2023/06/08 12:43:56;;;;;;;6.93;5.72;;;25.50;67.50;;;;;;7557381;19;20022;-79
2023/06/08 12:46:29;;;;;;;7.95;5.50;;;25.50;66.30;;;;;;7571755;19;20018;-79
2023/06/08 12:49:01;;;;;;;6.53;5.80;;;25.50;67.80;;;;;;7586690;19;20010;-77
2023/06/08 12:51:34;;;;;;;6.67;5.97;;;25.50;67.60;;;;;;7569380;19;20018;-77
2023/06/08 12:54:06;;;;;;;6.72;6.03;;;25.50;68.50;;;;;;7558036;19;20021;-79
2023/06/08 12:56:39;;;;;;;9.50;7.28;;;25.50;64.60;;;;;;7571463;19;20011;-81
2023/06/08 12:59:12;;;;;;;9.50;7.20;;;25.50;63.50;;;;;;7558696;19;20018;-79
2023/06/08 13:01:44;;;;;;;10.15;7.72;;;25.40;63.50;;;;;;7562601;19;20025;-80
2023/06/08 13:04:17;;;;;;;8.23;7.40;;;25.40;61.80;;;;;;7556799;19;20014;-81
2023/06/08 13:06:50;;;;;;;9.48;6.97;;;25.30;60.90;;;;;;7576371;19;20057;-78
2023/06/08 13:09:22;;;;;;;10.13;7.63;;;25.30;63.00;;;;;;7578380;19;20014;-78
2023/06/08 13:11:54;;;;;;;7.88;6.28;;;25.10;63.90;;;;;;7565195;19;20010;-79
2023/06/08 13:14:26;;;;;;;7.68;6.80;;;25.20;64.70;;;;;;7546882;19;20018;-80
2023/06/08 13:17:01;;;;;;;15.98;6.97;;;25.20;64.50;;;;;;7568662;19;21255;-80
2023/06/08 13:19:33;;;;;;;8.10;6.57;;;25.10;65.30;;;;;;7544663;19;20020;-80
2023/06/08 13:22:07;;;;;;;7.85;6.55;;;25.00;66.20;;;;;;7568351;19;21214;-80
2023/06/08 13:24:40;;;;;;;8.32;6.68;;;24.90;67.20;;;;;;7580753;19;20667;-77
2023/06/08 13:27:12;;;;;;;8.13;6.20;;;24.80;67.80;;;;;;7567728;19;21921;-79
2023/06/08 13:29:48;;;;;;;9.30;7.00;;;24.80;64.60;;;;;;7555877;19;20018;-80
2023/06/08 13:32:21;;;;;;;7.63;6.60;;;24.80;65.90;;;;;;7579922;19;20030;-79
2023/06/08 13:34:55;;;;;;;10.85;6.47;;;25.00;66.00;;;;;;7568523;19;20097;-74
2023/06/08 13:37:28;;;;;;;13.75;6.90;;;25.00;65.40;;;;;;7547178;19;20018;-74
2023/06/08 13:40:00;;;;;;;7.97;6.13;;;25.10;63.50;;;;;;7571240;19;20031;-74
2023/06/08 13:42:32;;;;;;;9.00;6.40;;;25.00;63.40;;;;;;7545210;19;22239;-74
2023/06/08 13:45:10;;;;;;;9.80;6.60;;;25.20;62.00;;;;;;7573524;19;21112;-75
2023/06/08 13:47:44;;;;;;;10.75;6.97;;;25.20;63.00;;;;;;7550048;19;20014;-76